sensor_id;sensor_type;location;lat;lon;timestamp;P1;durP1;ratioP1;P2;durP2;ratioP2
43871;SDS011;29521;48.780;9.126;2023-07-20T08:10:19;24.60;;;23.60;;
43871;SDS011;29521;48.780;9.126;2023-07-20T08:16:22;24.67;;;23.67;;
43871;SDS011;29521;48.780;9.126;2023-07-20T08:22:24;26.42;;;25.33;;
43871;SDS011;29521;48.780;9.126;2023-07-20T08:46:34;26.33;;;25.23;;
43871;SDS011;29521;48.780;9.126;2023-07-20T08:52:39;26.33;;;25.23;;
43871;SDS011;29521;48.780;9.126;2023-07-20T08:58:41;26.20;;;25.10;;
43871;SDS011;29521;48.780;9.126;2023-07-20T09:04:45;25.85;;;24.75;;
43871;SDS011;29521;48.780;9.126;2023-07-20T09:10:47;25.25;;;24.15;;
43871;SDS011;29521;48.780;9.126;2023-07-20T09:16:49;25.52;;;24.42;;
43871;SDS011;29521;48.780;9.126;2023-07-20T09:22:55;27.27;;;26.07;;
43871;SDS011;29521;48.780;9.126;2023-07-20T09:28:57;26.25;;;25.15;;
43871;SDS011;29521;48.780;9.126;2023-07-20T09:34:59;25.17;;;24.07;;
43871;SDS011;29521;48.780;9.126;2023-07-20T09:41:03;25.75;;;24.65;;
43871;SDS011;29521;48.780;9.126;2023-07-20T09:47:07;38.72;;;36.92;;
43871;SDS011;29521;48.780;9.126;2023-07-20T09:53:11;37.67;;;35.97;;
43871;SDS011;29521;48.780;9.126;2023-07-20T09:59:15;37.00;;;35.30;;
43871;SDS011;29521;48.780;9.126;2023-07-20T10:05:18;35.83;;;34.22;;
43871;SDS011;29521;48.780;9.126;2023-07-20T10:11:23;36.10;;;34.50;;
43871;SDS011;29521;48.780;9.126;2023-07-20T10:17:32;36.35;;;34.75;;
43871;SDS011;29521;48.780;9.126;2023-07-20T10:23:34;35.70;;;34.10;;
43871;SDS011;29521;48.780;9.126;2023-07-20T10:29:36;35.90;;;34.30;;
43871;SDS011;29521;48.780;9.126;2023-07-20T10:35:52;34.90;;;33.33;;
43871;SDS011;29521;48.780;9.126;2023-07-20T11:00:11;27.27;;;26.08;;
43871;SDS011;29521;48.780;9.126;2023-07-20T11:06:29;26.52;;;25.42;;
43871;SDS011;29521;48.780;9.126;2023-07-20T11:12:39;25.67;;;24.57;;
43871;SDS011;29521;48.780;9.126;2023-07-20T11:18:41;27.10;;;25.90;;
43871;SDS011;29521;48.780;9.126;2023-07-20T11:36:51;27.63;;;26.43;;
43871;SDS011;29521;48.780;9.126;2023-07-20T11:48:58;37.87;;;36.17;;
43871;SDS011;29521;48.780;9.126;2023-07-20T11:55:01;36.13;;;34.53;;
43871;SDS011;29521;48.780;9.126;2023-07-20T12:01:03;37.53;;;35.83;;
43871;SDS011;29521;48.780;9.126;2023-07-20T12:07:08;39.33;;;37.53;;
43871;SDS011;29521;48.780;9.126;2023-07-20T12:13:10;40.67;;;38.78;;
43871;SDS011;29521;48.780;9.126;2023-07-20T12:19:13;40.88;;;38.97;;
43871;SDS011;29521;48.780;9.126;2023-07-20T12:25:18;13.65;;;13.05;;
43871;SDS011;29521;48.780;9.126;2023-07-20T12:31:20;14.87;;;14.27;;
43871;SDS011;29521;48.780;9.126;2023-07-20T12:37:24;16.55;;;15.85;;
43871;SDS011;29521;48.780;9.126;2023-07-20T12:43:28;19.50;;;18.70;;
43871;SDS011;29521;48.780;9.126;2023-07-20T12:49:32;19.05;;;18.25;;
43871;SDS011;29521;48.780;9.126;2023-07-20T12:55:34;19.20;;;18.40;;
43871;SDS011;29521;48.780;9.126;2023-07-20T13:01:38;20.52;;;19.63;;
43871;SDS011;29521;48.780;9.126;2023-07-20T13:07:41;19.55;;;18.75;;
43871;SDS011;29521;48.780;9.126;2023-07-20T13:13:43;20.50;;;19.60;;
43871;SDS011;29521;48.780;9.126;2023-07-20T13:19:46;23.10;;;22.10;;
43871;SDS011;29521;48.780;9.126;2023-07-20T13:25:48;30.13;;;28.83;;
43871;SDS011;29521;48.780;9.126;2023-07-20T13:31:51;30.77;;;29.47;;
43871;SDS011;29521;48.780;9.126;2023-07-20T13:37:54;31.35;;;29.95;;
43871;SDS011;29521;48.780;9.126;2023-07-20T13:43:57;30.60;;;29.30;;
43871;SDS011;29521;48.780;9.126;2023-07-20T13:49:59;35.83;;;34.23;;
43871;SDS011;29521;48.780;9.126;2023-07-20T13:56:03;14.32;;;13.73;;
43871;SDS011;29521;48.780;9.126;2023-07-20T14:02:05;14.25;;;13.65;;
43871;SDS011;29521;48.780;9.126;2023-07-20T14:08:06;14.23;;;13.63;;
43871;SDS011;29521;48.780;9.126;2023-07-20T14:14:10;14.00;;;13.40;;
43871;SDS011;29521;48.780;9.126;2023-07-20T14:20:11;14.32;;;13.73;;
43871;SDS011;29521;48.780;9.126;2023-07-20T14:26:13;16.10;;;15.40;;
43871;SDS011;29521;48.780;9.126;2023-07-20T14:32:16;16.40;;;15.70;;
43871;SDS011;29521;48.780;9.126;2023-07-20T14:38:18;16.10;;;15.40;;
43871;SDS011;29521;48.780;9.126;2023-07-20T14:44:20;16.00;;;15.30;;
43871;SDS011;29521;48.780;9.126;2023-07-20T14:50:23;15.70;;;15.00;;
43871;SDS011;29521;48.780;9.126;2023-07-20T14:56:24;19.80;;;19.00;;
43871;SDS011;29521;48.780;9.126;2023-07-20T15:02:26;19.60;;;18.80;;
43871;SDS011;29521;48.780;9.126;2023-07-20T15:08:30;21.60;;;20.70;;
43871;SDS011;29521;48.780;9.126;2023-07-20T15:14:32;23.40;;;22.40;;
43871;SDS011;29521;48.780;9.126;2023-07-20T15:20:34;23.30;;;22.30;;
43871;SDS011;29521;48.780;9.126;2023-07-20T15:26:37;23.33;;;22.33;;
43871;SDS011;29521;48.780;9.126;2023-07-20T15:32:41;23.50;;;22.50;;
43871;SDS011;29521;48.780;9.126;2023-07-20T15:38:45;23.15;;;22.15;;
43871;SDS011;29521;48.780;9.126;2023-07-20T15:44:49;22.83;;;21.83;;
43871;SDS011;29521;48.780;9.126;2023-07-20T15:50:50;22.95;;;21.95;;
43871;SDS011;29521;48.780;9.126;2023-07-20T15:56:53;24.75;;;23.70;;
43871;SDS011;29521;48.780;9.126;2023-07-20T16:02:59;24.40;;;23.40;;
43871;SDS011;29521;48.780;9.126;2023-07-20T16:09:01;27.55;;;26.35;;
43871;SDS011;29521;48.780;9.126;2023-07-20T16:15:06;27.47;;;26.27;;
43871;SDS011;29521;48.780;9.126;2023-07-20T16:21:10;28.08;;;26.88;;
43871;SDS011;29521;48.780;9.126;2023-07-20T16:27:12;28.27;;;27.07;;
43871;SDS011;29521;48.780;9.126;2023-07-20T16:33:13;28.67;;;27.48;;
43871;SDS011;29521;48.780;9.126;2023-07-20T16:39:17;29.90;;;28.60;;
43871;SDS011;29521;48.780;9.126;2023-07-20T16:45:19;35.22;;;33.63;;
43871;SDS011;29521;48.780;9.126;2023-07-20T16:51:21;38.00;;;36.30;;
43871;SDS011;29521;48.780;9.126;2023-07-20T16:57:24;15.18;;;14.57;;
43871;SDS011;29521;48.780;9.126;2023-07-20T17:03:27;16.90;;;16.20;;
43871;SDS011;29521;48.780;9.126;2023-07-20T17:09:29;16.58;;;15.88;;
43871;SDS011;29521;48.780;9.126;2023-07-20T17:15:34;23.48;;;22.48;;
43871;SDS011;29521;48.780;9.126;2023-07-20T17:21:40;23.77;;;22.77;;
43871;SDS011;29521;48.780;9.126;2023-07-20T17:27:42;32.77;;;31.37;;
43871;SDS011;29521;48.780;9.126;2023-07-20T17:33:47;13.82;;;13.23;;
43871;SDS011;29521;48.780;9.126;2023-07-20T17:39:51;18.40;;;17.60;;
43871;SDS011;29521;48.780;9.126;2023-07-20T17:45:53;17.73;;;17.02;;
43871;SDS011;29521;48.780;9.126;2023-07-20T17:51:56;18.60;;;17.80;;
43871;SDS011;29521;48.780;9.126;2023-07-20T17:57:59;18.70;;;17.90;;
43871;SDS011;29521;48.780;9.126;2023-07-20T18:04:00;18.60;;;17.80;;
43871;SDS011;29521;48.780;9.126;2023-07-20T18:10:04;18.73;;;17.92;;
43871;SDS011;29521;48.780;9.126;2023-07-20T18:16:08;18.80;;;18.00;;
43871;SDS011;29521;48.780;9.126;2023-07-20T18:22:12;18.70;;;17.90;;
43871;SDS011;29521;48.780;9.126;2023-07-20T18:28:15;18.83;;;18.02;;
43871;SDS011;29521;48.780;9.126;2023-07-20T18:34:17;18.60;;;17.80;;
43871;SDS011;29521;48.780;9.126;2023-07-20T18:40:19;20.27;;;19.40;;
43871;SDS011;29521;48.780;9.126;2023-07-20T18:46:24;21.80;;;20.90;;
43871;SDS011;29521;48.780;9.126;2023-07-20T18:52:26;22.40;;;21.48;;
43871;SDS011;29521;48.780;9.126;2023-07-20T18:58:28;22.52;;;21.58;;
43871;SDS011;29521;48.780;9.126;2023-07-20T19:04:33;23.98;;;22.98;;
43871;SDS011;29521;48.780;9.126;2023-07-20T19:10:35;29.83;;;28.52;;
43871;SDS011;29521;48.780;9.126;2023-07-20T19:16:37;33.15;;;31.65;;
43871;SDS011;29521;48.780;9.126;2023-07-20T19:22:41;33.83;;;32.33;;
43871;SDS011;29521;48.780;9.126;2023-07-20T19:28:43;34.33;;;32.83;;
43871;SDS011;29521;48.780;9.126;2023-07-20T19:34:45;36.13;;;34.53;;
43871;SDS011;29521;48.780;9.126;2023-07-20T19:40:48;13.32;;;12.73;;
43871;SDS011;29521;48.780;9.126;2023-07-20T19:46:50;13.10;;;12.50;;
43871;SDS011;29521;48.780;9.126;2023-07-20T19:52:54;13.00;;;12.40;;
43871;SDS011;29521;48.780;9.126;2023-07-20T19:58:59;12.90;;;12.40;;
43871;SDS011;29521;48.780;9.126;2023-07-20T20:05:02;12.90;;;12.35;;
43871;SDS011;29521;48.780;9.126;2023-07-20T20:11:06;12.32;;;11.82;;
43871;SDS011;29521;48.780;9.126;2023-07-20T20:17:09;13.30;;;12.70;;
43871;SDS011;29521;48.780;9.126;2023-07-20T20:23:15;13.40;;;12.80;;
43871;SDS011;29521;48.780;9.126;2023-07-20T20:29:18;14.38;;;13.77;;
43871;SDS011;29521;48.780;9.126;2023-07-20T20:35:21;15.07;;;14.48;;
43871;SDS011;29521;48.780;9.126;2023-07-20T20:41:24;15.50;;;14.80;;
43871;SDS011;29521;48.780;9.126;2023-07-20T20:47:29;15.17;;;14.57;;
43871;SDS011;29521;48.780;9.126;2023-07-20T20:53:36;17.02;;;16.33;;
43871;SDS011;29521;48.780;9.126;2023-07-20T20:59:40;17.63;;;16.93;;
43871;SDS011;29521;48.780;9.126;2023-07-20T21:05:47;18.02;;;17.23;;
43871;SDS011;29521;48.780;9.126;2023-07-20T21:11:50;17.63;;;16.92;;
43871;SDS011;29521;48.780;9.126;2023-07-20T21:17:52;18.50;;;17.70;;
43871;SDS011;29521;48.780;9.126;2023-07-20T21:23:55;18.35;;;17.55;;
43871;SDS011;29521;48.780;9.126;2023-07-20T21:30:00;22.20;;;21.30;;
43871;SDS011;29521;48.780;9.126;2023-07-20T21:36:02;23.73;;;22.73;;
43871;SDS011;29521;48.780;9.126;2023-07-20T21:42:05;25.90;;;24.80;;
43871;SDS011;29521;48.780;9.126;2023-07-20T21:48:08;25.52;;;24.42;;
43871;SDS011;29521;48.780;9.126;2023-07-20T21:54:10;24.80;;;23.70;;
43871;SDS011;29521;48.780;9.126;2023-07-20T22:00:13;27.37;;;26.17;;
43871;SDS011;29521;48.780;9.126;2023-07-20T22:06:16;29.35;;;28.05;;
43871;SDS011;29521;48.780;9.126;2023-07-20T22:12:18;35.95;;;34.35;;
43871;SDS011;29521;48.780;9.126;2023-07-20T22:18:21;13.43;;;12.83;;
43871;SDS011;29521;48.780;9.126;2023-07-20T22:24:25;14.63;;;14.02;;
43871;SDS011;29521;48.780;9.126;2023-07-20T22:30:30;14.90;;;14.30;;
43871;SDS011;29521;48.780;9.126;2023-07-20T22:36:32;15.27;;;14.67;;
43871;SDS011;29521;48.780;9.126;2023-07-20T22:42:35;15.37;;;14.70;;
43871;SDS011;29521;48.780;9.126;2023-07-20T22:48:38;17.17;;;16.48;;
43871;SDS011;29521;48.780;9.126;2023-07-20T22:54:40;21.00;;;20.10;;
43871;SDS011;29521;48.780;9.126;2023-07-20T23:00:44;22.20;;;21.30;;
43871;SDS011;29521;48.780;9.126;2023-07-20T23:06:45;21.57;;;20.67;;
43871;SDS011;29521;48.780;9.126;2023-07-20T23:12:47;24.25;;;23.25;;
43871;SDS011;29521;48.780;9.126;2023-07-20T23:18:51;28.02;;;26.83;;
43871;SDS011;29521;48.780;9.126;2023-07-20T23:24:53;10.60;;;10.10;;
43871;SDS011;29521;48.780;9.126;2023-07-20T23:30:55;10.90;;;10.40;;
43871;SDS011;29521;48.780;9.126;2023-07-20T23:36:59;14.60;;;14.00;;
43871;SDS011;29521;48.780;9.126;2023-07-20T23:43:02;15.20;;;14.60;;
43871;SDS011;29521;48.780;9.126;2023-07-20T23:49:05;14.20;;;13.60;;
43871;SDS011;29521;48.780;9.126;2023-07-20T23:55:10;14.23;;;13.63;;
